sensor_id;sensor_type;location;lat;lon;timestamp;pressure;altitude;pressure_sealevel;temperature;humidity
52591;BME280;38483;42.620;25.394;2023-01-25T00:00:29;98311.69;;;2.59;79.49
52591;BME280;38483;42.620;25.394;2023-01-25T00:02:57;98324.47;;;2.59;79.66
52591;BME280;38483;42.620;25.394;2023-01-25T00:05:24;98298.06;;;2.62;79.73
52591;BME280;38483;42.620;25.394;2023-01-25T00:07:51;98319.41;;;2.74;79.69
52591;BME280;38483;42.620;25.394;2023-01-25T00:10:18;98306.56;;;2.62;79.43
52591;BME280;38483;42.620;25.394;2023-01-25T00:12:45;98315.19;;;2.78;78.90
52591;BME280;38483;42.620;25.394;2023-01-25T00:15:12;98300.50;;;2.48;79.74
52591;BME280;38483;42.620;25.394;2023-01-25T00:17:39;98310.78;;;2.53;79.37
52591;BME280;38483;42.620;25.394;2023-01-25T00:20:09;98303.91;;;2.41;79.55
52591;BME280;38483;42.620;25.394;2023-01-25T00:22:36;98312.38;;;2.37;79.08
52591;BME280;38483;42.620;25.394;2023-01-25T00:25:03;98312.44;;;2.47;79.55
52591;BME280;38483;42.620;25.394;2023-01-25T00:27:31;98310.66;;;2.34;80.28
52591;BME280;38483;42.620;25.394;2023-01-25T00:29:58;98307.28;;;2.41;79.86
52591;BME280;38483;42.620;25.394;2023-01-25T00:32:36;98313.19;;;2.33;80.14
52591;BME280;38483;42.620;25.394;2023-01-25T00:35:10;98319.13;;;2.29;80.76
52591;BME280;38483;42.620;25.394;2023-01-25T00:37:42;98314.09;;;2.38;80.02
52591;BME280;38483;42.620;25.394;2023-01-25T00:40:11;98306.25;;;2.17;80.12
52591;BME280;38483;42.620;25.394;2023-01-25T00:42:38;98312.44;;;2.47;79.05
52591;BME280;38483;42.620;25.394;2023-01-25T00:45:06;98314.06;;;2.32;79.20
52591;BME280;38483;42.620;25.394;2023-01-25T00:47:34;98311.50;;;2.33;78.91
52591;BME280;38483;42.620;25.394;2023-01-25T00:50:05;98293.53;;;2.23;79.08
52591;BME280;38483;42.620;25.394;2023-01-25T00:52:32;98302.09;;;2.29;78.16
52591;BME280;38483;42.620;25.394;2023-01-25T00:54:59;98301.22;;;2.26;78.80
52591;BME280;38483;42.620;25.394;2023-01-25T00:57:26;98302.94;;;2.27;79.20
52591;BME280;38483;42.620;25.394;2023-01-25T00:59:53;98297.09;;;2.43;78.30
52591;BME280;38483;42.620;25.394;2023-01-25T01:02:21;98292.84;;;2.48;78.00
52591;BME280;38483;42.620;25.394;2023-01-25T01:04:51;98290.31;;;2.54;77.90
52591;BME280;38483;42.620;25.394;2023-01-25T01:07:18;98292.81;;;2.39;78.02
52591;BME280;38483;42.620;25.394;2023-01-25T01:09:45;98290.28;;;2.48;77.43
52591;BME280;38483;42.620;25.394;2023-01-25T01:12:12;98284.31;;;2.43;78.08
52591;BME280;38483;42.620;25.394;2023-01-25T01:14:41;98273.22;;;2.44;77.54
52591;BME280;38483;42.620;25.394;2023-01-25T01:17:08;98282.63;;;2.49;77.46
52591;BME280;38483;42.620;25.394;2023-01-25T01:19:35;98285.22;;;2.54;76.92
52591;BME280;38483;42.620;25.394;2023-01-25T01:22:02;98280.09;;;2.51;76.61
52591;BME280;38483;42.620;25.394;2023-01-25T01:24:29;98285.25;;;2.60;76.54
52591;BME280;38483;42.620;25.394;2023-01-25T01:26:56;98288.63;;;2.53;75.83
52591;BME280;38483;42.620;25.394;2023-01-25T01:29:23;98284.34;;;2.54;76.17
52591;BME280;38483;42.620;25.394;2023-01-25T01:31:51;98287.72;;;2.45;76.19
52591;BME280;38483;42.620;25.394;2023-01-25T01:34:22;98260.41;;;2.39;76.36
52591;BME280;38483;42.620;25.394;2023-01-25T01:36:49;98285.19;;;2.46;77.21
52591;BME280;38483;42.620;25.394;2023-01-25T01:39:17;98279.16;;;2.38;76.83
52591;BME280;38483;42.620;25.394;2023-01-25T01:41:44;98288.63;;;2.56;75.87
52591;BME280;38483;42.620;25.394;2023-01-25T01:44:18;98286.97;;;2.64;75.58
52591;BME280;38483;42.620;25.394;2023-01-25T01:46:53;98274.94;;;2.49;74.71
52591;BME280;38483;42.620;25.394;2023-01-25T01:49:26;98286.03;;;2.48;75.29
52591;BME280;38483;42.620;25.394;2023-01-25T01:52:15;98272.25;;;2.27;76.17
52591;BME280;38483;42.620;25.394;2023-01-25T01:55:12;98281.72;;;2.37;75.69
52591;BME280;38483;42.620;25.394;2023-01-25T01:57:43;98274.03;;;2.34;76.03
52591;BME280;38483;42.620;25.394;2023-01-25T02:00:17;98277.38;;;2.25;76.04
52591;BME280;38483;42.620;25.394;2023-01-25T02:02:48;98262.88;;;2.23;75.44
52591;BME280;38483;42.620;25.394;2023-01-25T02:05:29;98271.38;;;2.20;75.52
52591;BME280;38483;42.620;25.394;2023-01-25T02:07:57;98276.53;;;2.31;76.17
52591;BME280;38483;42.620;25.394;2023-01-25T02:10:27;98273.13;;;2.26;76.29
52591;BME280;38483;42.620;25.394;2023-01-25T02:12:55;98285.06;;;2.33;75.38
52591;BME280;38483;42.620;25.394;2023-01-25T02:15:27;98279.13;;;2.32;75.33
52591;BME280;38483;42.620;25.394;2023-01-25T02:18:01;98279.09;;;2.28;75.49
52591;BME280;38483;42.620;25.394;2023-01-25T02:20:39;98285.72;;;2.02;76.61
52591;BME280;38483;42.620;25.394;2023-01-25T02:25:33;98276.06;;;1.64;77.36
52591;BME280;38483;42.620;25.394;2023-01-25T02:28:08;98280.41;;;1.78;78.36
52591;BME280;38483;42.620;25.394;2023-01-25T02:30:37;98281.16;;;1.67;78.04
52591;BME280;38483;42.620;25.394;2023-01-25T02:33:04;98276.22;;;1.83;78.38
52591;BME280;38483;42.620;25.394;2023-01-25T02:35:42;98277.91;;;1.84;78.77
52591;BME280;38483;42.620;25.394;2023-01-25T02:38:15;98266.81;;;1.80;78.29
52591;BME280;38483;42.620;25.394;2023-01-25T02:41:11;98269.50;;;1.94;77.87
52591;BME280;38483;42.620;25.394;2023-01-25T02:43:41;98268.50;;;1.77;78.38
52591;BME280;38483;42.620;25.394;2023-01-25T02:46:29;98278.81;;;1.92;77.32
52591;BME280;38483;42.620;25.394;2023-01-25T02:48:59;98257.41;;;1.75;78.07
52591;BME280;38483;42.620;25.394;2023-01-25T02:51:30;98271.00;;;1.71;78.37
52591;BME280;38483;42.620;25.394;2023-01-25T02:53:58;98262.66;;;1.94;78.76
52591;BME280;38483;42.620;25.394;2023-01-25T02:56:26;98260.59;;;1.51;78.70
52591;BME280;38483;42.620;25.394;2023-01-25T02:58:53;98264.06;;;1.57;78.89
52591;BME280;38483;42.620;25.394;2023-01-25T03:01:20;98258.28;;;1.78;78.38
52591;BME280;38483;42.620;25.394;2023-01-25T03:03:47;98266.00;;;1.83;77.49
52591;BME280;38483;42.620;25.394;2023-01-25T03:06:15;98256.66;;;1.86;77.64
52591;BME280;38483;42.620;25.394;2023-01-25T03:08:42;98266.91;;;1.92;76.47
52591;BME280;38483;42.620;25.394;2023-01-25T03:11:09;98263.53;;;1.93;76.53
52591;BME280;38483;42.620;25.394;2023-01-25T03:13:37;98262.56;;;1.81;76.11
52591;BME280;38483;42.620;25.394;2023-01-25T03:16:06;98262.56;;;1.84;77.47
52591;BME280;38483;42.620;25.394;2023-01-25T03:18:34;98247.28;;;1.85;76.72
52591;BME280;38483;42.620;25.394;2023-01-25T03:21:11;98263.56;;;1.98;76.34
52591;BME280;38483;42.620;25.394;2023-01-25T03:23:39;98264.97;;;1.64;76.83
52591;BME280;38483;42.620;25.394;2023-01-25T03:26:11;98259.94;;;1.70;76.55
52591;BME280;38483;42.620;25.394;2023-01-25T03:28:51;98263.44;;;1.84;76.34
52591;BME280;38483;42.620;25.394;2023-01-25T03:31:19;98259.16;;;1.82;76.43
52591;BME280;38483;42.620;25.394;2023-01-25T03:33:47;98262.72;;;1.99;76.67
52591;BME280;38483;42.620;25.394;2023-01-25T03:36:14;98258.41;;;1.95;75.54
52591;BME280;38483;42.620;25.394;2023-01-25T03:38:41;98260.06;;;1.87;75.35
52591;BME280;38483;42.620;25.394;2023-01-25T03:41:09;98270.41;;;2.03;76.15
52591;BME280;38483;42.620;25.394;2023-01-25T03:43:38;98269.41;;;1.88;75.07
52591;BME280;38483;42.620;25.394;2023-01-25T03:46:05;98266.03;;;1.89;75.10
52591;BME280;38483;42.620;25.394;2023-01-25T03:48:33;98269.50;;;1.97;75.49
52591;BME280;38483;42.620;25.394;2023-01-25T03:51:00;98275.44;;;1.93;75.92
52591;BME280;38483;42.620;25.394;2023-01-25T03:53:29;98284.81;;;1.94;76.32
52591;BME280;38483;42.620;25.394;2023-01-25T03:56:10;98274.66;;;2.01;75.17
52591;BME280;38483;42.620;25.394;2023-01-25T03:58:45;98275.28;;;1.76;76.08
52591;BME280;38483;42.620;25.394;2023-01-25T04:01:13;98272.84;;;1.87;76.20
52591;BME280;38483;42.620;25.394;2023-01-25T04:03:40;98262.63;;;1.87;75.79
52591;BME280;38483;42.620;25.394;2023-01-25T04:06:09;98270.94;;;1.64;76.23
52591;BME280;38483;42.620;25.394;2023-01-25T04:08:37;98276.25;;;1.89;75.78
52591;BME280;38483;42.620;25.394;2023-01-25T04:11:07;98283.91;;;1.90;76.43
52591;BME280;38483;42.620;25.394;2023-01-25T04:13:36;98268.59;;;1.89;76.42
52591;BME280;38483;42.620;25.394;2023-01-25T04:16:08;98286.50;;;1.95;76.14
52591;BME280;38483;42.620;25.394;2023-01-25T04:19:00;98282.31;;;2.03;76.26
52591;BME280;38483;42.620;25.394;2023-01-25T04:21:29;98285.66;;;1.91;76.25
52591;BME280;38483;42.620;25.394;2023-01-25T04:23:56;98286.44;;;1.86;76.04
52591;BME280;38483;42.620;25.394;2023-01-25T04:26:24;98274.56;;;1.89;76.04
52591;BME280;38483;42.620;25.394;2023-01-25T04:28:55;98274.59;;;1.95;76.38
52591;BME280;38483;42.620;25.394;2023-01-25T04:31:22;98276.34;;;1.98;75.73
52591;BME280;38483;42.620;25.394;2023-01-25T04:33:49;98284.91;;;2.06;75.11
52591;BME280;38483;42.620;25.394;2023-01-25T04:36:18;98286.59;;;2.07;75.60
52591;BME280;38483;42.620;25.394;2023-01-25T04:38:46;98287.50;;;2.13;75.70
52591;BME280;38483;42.620;25.394;2023-01-25T04:41:13;98296.91;;;2.19;75.66
52591;BME280;38483;42.620;25.394;2023-01-25T04:43:42;98293.47;;;2.14;75.07
52591;BME280;38483;42.620;25.394;2023-01-25T04:46:09;98285.81;;;2.17;74.70
52591;BME280;38483;42.620;25.394;2023-01-25T04:48:38;98290.09;;;2.18;75.26
52591;BME280;38483;42.620;25.394;2023-01-25T04:51:06;98280.72;;;2.15;74.86
52591;BME280;38483;42.620;25.394;2023-01-25T04:53:35;98292.69;;;2.27;74.84
52591;BME280;38483;42.620;25.394;2023-01-25T04:56:05;98283.38;;;2.35;74.85
52591;BME280;38483;42.620;25.394;2023-01-25T04:58:40;98283.34;;;2.26;74.11
52591;BME280;38483;42.620;25.394;2023-01-25T05:01:07;98288.38;;;2.17;74.20
52591;BME280;38483;42.620;25.394;2023-01-25T05:03:34;98285.00;;;2.18;74.11
52591;BME280;38483;42.620;25.394;2023-01-25T05:06:03;98290.03;;;2.10;74.62
52591;BME280;38483;42.620;25.394;2023-01-25T05:08:30;98285.78;;;2.11;74.08
52591;BME280;38483;42.620;25.394;2023-01-25T05:11:00;98284.91;;;2.09;74.13
52591;BME280;38483;42.620;25.394;2023-01-25T05:13:36;98269.59;;;2.06;75.11
52591;BME280;38483;42.620;25.394;2023-01-25T05:16:14;98272.25;;;2.24;74.60
52591;BME280;38483;42.620;25.394;2023-01-25T05:18:41;98267.97;;;2.23;73.89
52591;BME280;38483;42.620;25.394;2023-01-25T05:21:21;98250.91;;;2.19;74.67
52591;BME280;38483;42.620;25.394;2023-01-25T05:24:11;98274.78;;;2.21;74.89
52591;BME280;38483;42.620;25.394;2023-01-25T05:26:38;98271.28;;;2.04;74.89
52591;BME280;38483;42.620;25.394;2023-01-25T05:29:31;98278.16;;;2.14;75.04
52591;BME280;38483;42.620;25.394;2023-01-25T05:34:32;98280.63;;;2.05;74.29
52591;BME280;38483;42.620;25.394;2023-01-25T05:37:00;98271.28;;;2.05;74.26
52591;BME280;38483;42.620;25.394;2023-01-25T05:39:28;98278.13;;;2.09;74.12
52591;BME280;38483;42.620;25.394;2023-01-25T05:41:56;98284.03;;;2.05;73.80
52591;BME280;38483;42.620;25.394;2023-01-25T05:44:23;98284.00;;;2.02;74.21
52591;BME280;38483;42.620;25.394;2023-01-25T05:46:50;98279.75;;;2.00;72.82
52591;BME280;38483;42.620;25.394;2023-01-25T05:49:18;98275.44;;;1.91;73.40
52591;BME280;38483;42.620;25.394;2023-01-25T05:51:45;98283.19;;;2.03;73.98
52591;BME280;38483;42.620;25.394;2023-01-25T05:54:15;98292.50;;;1.98;73.38
52591;BME280;38483;42.620;25.394;2023-01-25T05:56:49;98289.94;;;1.95;74.15
52591;BME280;38483;42.620;25.394;2023-01-25T05:59:17;98277.16;;;1.95;73.60
52591;BME280;38483;42.620;25.394;2023-01-25T06:01:45;98284.00;;;1.98;73.98
52591;BME280;38483;42.620;25.394;2023-01-25T06:04:14;98295.25;;;2.24;73.84
52591;BME280;38483;42.620;25.394;2023-01-25T06:06:42;98304.63;;;2.25;74.13
52591;BME280;38483;42.620;25.394;2023-01-25T06:09:10;98299.50;;;2.25;73.84
52591;BME280;38483;42.620;25.394;2023-01-25T06:11:39;98296.94;;;2.23;73.07
52591;BME280;38483;42.620;25.394;2023-01-25T06:14:08;98310.66;;;2.36;72.72
52591;BME280;38483;42.620;25.394;2023-01-25T06:16:35;98286.63;;;2.10;72.67
52591;BME280;38483;42.620;25.394;2023-01-25T06:19:26;98307.03;;;2.08;72.43
52591;BME280;38483;42.620;25.394;2023-01-25T06:22:07;98307.91;;;2.06;72.92
52591;BME280;38483;42.620;25.394;2023-01-25T06:24:35;98315.53;;;2.00;73.08
52591;BME280;38483;42.620;25.394;2023-01-25T06:27:01;98312.97;;;2.01;72.65
52591;BME280;38483;42.620;25.394;2023-01-25T06:29:28;98312.19;;;2.10;72.97
52591;BME280;38483;42.620;25.394;2023-01-25T06:31:55;98312.97;;;2.04;72.85
52591;BME280;38483;42.620;25.394;2023-01-25T06:34:22;98313.88;;;2.11;72.38
52591;BME280;38483;42.620;25.394;2023-01-25T06:36:51;98319.94;;;2.23;72.24
52591;BME280;38483;42.620;25.394;2023-01-25T06:39:18;98320.03;;;2.35;72.33
52591;BME280;38483;42.620;25.394;2023-01-25T06:41:46;98322.59;;;2.34;72.24
52591;BME280;38483;42.620;25.394;2023-01-25T06:44:13;98323.38;;;2.24;72.34
52591;BME280;38483;42.620;25.394;2023-01-25T06:46:40;98323.44;;;2.37;71.55
52591;BME280;38483;42.620;25.394;2023-01-25T06:49:07;98320.63;;;2.00;72.69
52591;BME280;38483;42.620;25.394;2023-01-25T06:51:34;98307.94;;;2.15;72.87
52591;BME280;38483;42.620;25.394;2023-01-25T06:54:01;98320.72;;;2.13;72.63
52591;BME280;38483;42.620;25.394;2023-01-25T06:56:30;98319.94;;;2.23;72.78
52591;BME280;38483;42.620;25.394;2023-01-25T06:58:59;98305.22;;;1.91;72.33
52591;BME280;38483;42.620;25.394;2023-01-25T07:01:27;98310.38;;;1.94;73.87
52591;BME280;38483;42.620;25.394;2023-01-25T07:03:57;98313.88;;;2.08;73.42
52591;BME280;38483;42.620;25.394;2023-01-25T07:06:29;98316.47;;;2.14;73.15
52591;BME280;38483;42.620;25.394;2023-01-25T07:09:04;98327.59;;;2.22;72.24
52591;BME280;38483;42.620;25.394;2023-01-25T07:11:31;98314.84;;;2.25;72.15
52591;BME280;38483;42.620;25.394;2023-01-25T07:13:59;98320.84;;;2.33;71.63
52591;BME280;38483;42.620;25.394;2023-01-25T07:16:30;98317.38;;;2.22;71.47
52591;BME280;38483;42.620;25.394;2023-01-25T07:19:08;98290.84;;;2.06;71.74
52591;BME280;38483;42.620;25.394;2023-01-25T07:21:36;98306.38;;;2.30;71.83
52591;BME280;38483;42.620;25.394;2023-01-25T07:24:03;98296.22;;;2.42;70.64
52591;BME280;38483;42.620;25.394;2023-01-25T07:26:31;98294.53;;;2.43;70.68
52591;BME280;38483;42.620;25.394;2023-01-25T07:28:58;98278.22;;;2.29;71.33
52591;BME280;38483;42.620;25.394;2023-01-25T07:31:27;98312.53;;;2.64;69.81
52591;BME280;38483;42.620;25.394;2023-01-25T07:33:56;98307.94;;;2.13;66.75
52591;BME280;38483;42.620;25.394;2023-01-25T07:36:24;98311.19;;;1.94;68.21
52591;BME280;38483;42.620;25.394;2023-01-25T07:38:56;98296.78;;;1.98;69.26
52591;BME280;38483;42.620;25.394;2023-01-25T07:41:24;98312.28;;;2.25;68.20
52591;BME280;38483;42.620;25.394;2023-01-25T07:43:52;98308.16;;;2.40;69.97
52591;BME280;38483;42.620;25.394;2023-01-25T07:46:34;98315.06;;;2.55;70.83
52591;BME280;38483;42.620;25.394;2023-01-25T07:49:01;98289.47;;;2.54;71.41
52591;BME280;38483;42.620;25.394;2023-01-25T07:51:28;98315.97;;;2.63;70.86
52591;BME280;38483;42.620;25.394;2023-01-25T07:54:01;98311.66;;;2.62;71.30
52591;BME280;38483;42.620;25.394;2023-01-25T07:56:34;98312.56;;;2.70;70.55
52591;BME280;38483;42.620;25.394;2023-01-25T07:59:06;98300.69;;;2.81;70.66
52591;BME280;38483;42.620;25.394;2023-01-25T08:01:37;98309.25;;;2.89;70.87
52591;BME280;38483;42.620;25.394;2023-01-25T08:04:05;98314.38;;;2.86;69.52
52591;BME280;38483;42.620;25.394;2023-01-25T08:06:36;98298.09;;;2.72;70.25
52591;BME280;38483;42.620;25.394;2023-01-25T08:09:11;98312.69;;;2.88;69.82
52591;BME280;38483;42.620;25.394;2023-01-25T08:11:40;98300.75;;;2.90;68.97
52591;BME280;38483;42.620;25.394;2023-01-25T08:14:08;98269.16;;;2.79;68.57
52591;BME280;38483;42.620;25.394;2023-01-25T08:16:36;98287.00;;;2.67;68.62
52591;BME280;38483;42.620;25.394;2023-01-25T08:19:03;98300.75;;;2.90;68.18
52591;BME280;38483;42.620;25.394;2023-01-25T08:21:32;98317.06;;;3.15;68.67
52591;BME280;38483;42.620;25.394;2023-01-25T08:24:03;98317.91;;;3.12;68.67
52591;BME280;38483;42.620;25.394;2023-01-25T08:26:33;98306.78;;;3.04;69.05
52591;BME280;38483;42.620;25.394;2023-01-25T08:29:01;98320.53;;;3.29;68.36
52591;BME280;38483;42.620;25.394;2023-01-25T08:31:30;98324.78;;;3.28;68.44
52591;BME280;38483;42.620;25.394;2023-01-25T08:33:58;98316.28;;;3.43;68.73
52591;BME280;38483;42.620;25.394;2023-01-25T08:36:26;98321.44;;;3.54;67.88
52591;BME280;38483;42.620;25.394;2023-01-25T08:39:02;98317.19;;;3.54;66.72
52591;BME280;38483;42.620;25.394;2023-01-25T08:41:31;98317.19;;;3.54;67.65
52591;BME280;38483;42.620;25.394;2023-01-25T08:43:58;98323.19;;;3.73;67.13
52591;BME280;38483;42.620;25.394;2023-01-25T08:46:28;98312.06;;;3.63;67.73
52591;BME280;38483;42.620;25.394;2023-01-25T08:48:59;98315.47;;;3.71;65.58
52591;BME280;38483;42.620;25.394;2023-01-25T08:51:26;98315.50;;;3.73;65.12
52591;BME280;38483;42.620;25.394;2023-01-25T08:53:54;98324.88;;;3.60;65.49
52591;BME280;38483;42.620;25.394;2023-01-25T08:56:22;98316.22;;;3.22;66.40
52591;BME280;38483;42.620;25.394;2023-01-25T08:58:50;98327.41;;;3.50;66.21
52591;BME280;38483;42.620;25.394;2023-01-25T09:01:18;98334.22;;;3.45;65.86
52591;BME280;38483;42.620;25.394;2023-01-25T09:03:48;98313.72;;;3.51;64.81
52591;BME280;38483;42.620;25.394;2023-01-25T09:06:17;98273.59;;;3.32;64.63
52591;BME280;38483;42.620;25.394;2023-01-25T09:08:46;98319.72;;;3.50;64.79
52591;BME280;38483;42.620;25.394;2023-01-25T09:11:18;98292.41;;;3.55;65.27
52591;BME280;38483;42.620;25.394;2023-01-25T09:13:45;98318.94;;;3.81;65.27
52591;BME280;38483;42.620;25.394;2023-01-25T09:16:20;98301.81;;;3.65;64.45
52591;BME280;38483;42.620;25.394;2023-01-25T09:18:56;98310.38;;;3.62;64.34
52591;BME280;38483;42.620;25.394;2023-01-25T09:21:24;98308.66;;;3.70;65.15
52591;BME280;38483;42.620;25.394;2023-01-25T09:23:52;98277.91;;;3.55;64.04
52591;BME280;38483;42.620;25.394;2023-01-25T09:26:38;98246.31;;;3.46;64.21
52591;BME280;38483;42.620;25.394;2023-01-25T09:29:05;98295.00;;;3.76;64.40
52591;BME280;38483;42.620;25.394;2023-01-25T09:31:35;98288.19;;;3.88;64.37
52591;BME280;38483;42.620;25.394;2023-01-25T09:34:38;98292.44;;;3.68;63.82
52591;BME280;38483;42.620;25.394;2023-01-25T09:37:05;98278.78;;;3.62;64.19
52591;BME280;38483;42.620;25.394;2023-01-25T09:39:32;98271.09;;;3.75;64.78
52591;BME280;38483;42.620;25.394;2023-01-25T09:50:58;98247.19;;;3.82;63.90
52591;BME280;38483;42.620;25.394;2023-01-25T09:53:21;98256.56;;;3.88;63.79
52591;BME280;38483;42.620;25.394;2023-01-25T09:55:53;98243.75;;;3.77;63.07
52591;BME280;38483;42.620;25.394;2023-01-25T09:58:26;98242.94;;;3.83;63.51
52591;BME280;38483;42.620;25.394;2023-01-25T10:01:25;98237.78;;;3.92;63.35
52591;BME280;38483;42.620;25.394;2023-01-25T10:04:26;98229.28;;;3.91;62.95
52591;BME280;38483;42.620;25.394;2023-01-25T10:06:58;98222.44;;;3.89;63.17
52591;BME280;38483;42.620;25.394;2023-01-25T10:09:41;98224.13;;;3.61;62.78
52591;BME280;38483;42.620;25.394;2023-01-25T10:12:23;98218.16;;;3.44;63.20
52591;BME280;38483;42.620;25.394;2023-01-25T10:14:51;98221.53;;;3.31;63.00
52591;BME280;38483;42.620;25.394;2023-01-25T10:22:52;98189.94;;;3.20;62.29
52591;BME280;38483;42.620;25.394;2023-01-25T10:28:10;98196.78;;;3.35;62.31
52591;BME280;38483;42.620;25.394;2023-01-25T10:30:54;98187.38;;;3.21;61.57
52591;BME280;38483;42.620;25.394;2023-01-25T10:33:26;98183.16;;;3.23;61.38
52591;BME280;38483;42.620;25.394;2023-01-25T10:35:55;98183.16;;;3.29;62.43
52591;BME280;38483;42.620;25.394;2023-01-25T10:38:44;98179.75;;;3.52;61.23
52591;BME280;38483;42.620;25.394;2023-01-25T10:41:17;98172.91;;;3.66;60.85
52591;BME280;38483;42.620;25.394;2023-01-25T10:43:46;98165.19;;;3.79;61.62
52591;BME280;38483;42.620;25.394;2023-01-25T10:46:20;98167.75;;;3.84;60.13
52591;BME280;38483;42.620;25.394;2023-01-25T10:48:49;98158.38;;;3.69;61.22
52591;BME280;38483;42.620;25.394;2023-01-25T10:51:36;98157.53;;;3.79;61.53
52591;BME280;38483;42.620;25.394;2023-01-25T10:54:23;98141.31;;;3.89;60.71
52591;BME280;38483;42.620;25.394;2023-01-25T10:57:49;98137.84;;;3.98;60.26
52591;BME280;38483;42.620;25.394;2023-01-25T11:01:29;98154.00;;;4.30;59.93
52591;BME280;38483;42.620;25.394;2023-01-25T11:04:50;98151.47;;;4.24;60.51
52591;BME280;38483;42.620;25.394;2023-01-25T11:08:19;98100.19;;;4.20;59.59
52591;BME280;38483;42.620;25.394;2023-01-25T11:11:43;98141.22;;;4.15;60.29
52591;BME280;38483;42.620;25.394;2023-01-25T11:15:21;98131.78;;;4.29;60.29
52591;BME280;38483;42.620;25.394;2023-01-25T11:18:26;98123.16;;;4.48;59.14
52591;BME280;38483;42.620;25.394;2023-01-25T11:21:52;98119.84;;;4.22;59.43
52591;BME280;38483;42.620;25.394;2023-01-25T11:25:24;98118.09;;;4.30;60.64
52591;BME280;38483;42.620;25.394;2023-01-25T11:28:45;98121.44;;;4.50;61.40
52591;BME280;38483;42.620;25.394;2023-01-25T11:32:13;98115.44;;;4.54;59.48
52591;BME280;38483;42.620;25.394;2023-01-25T11:35:34;98112.91;;;4.47;61.53
52591;BME280;38483;42.620;25.394;2023-01-25T11:39:57;98109.50;;;4.40;60.48
52591;BME280;38483;42.620;25.394;2023-01-25T11:51:49;98094.97;;;4.44;61.10
52591;BME280;38483;42.620;25.394;2023-01-25T12:06:48;98085.44;;;4.62;59.24
52591;BME280;38483;42.620;25.394;2023-01-25T12:19:10;98071.28;;;3.78;61.75
52591;BME280;38483;42.620;25.394;2023-01-25T12:22:38;98067.03;;;3.76;62.61
52591;BME280;38483;42.620;25.394;2023-01-25T12:32:34;98061.13;;;3.13;64.04
52591;BME280;38483;42.620;25.394;2023-01-25T12:39:22;98053.44;;;3.50;62.71
52591;BME280;38483;42.620;25.394;2023-01-25T12:42:57;98037.22;;;3.43;63.42
52591;BME280;38483;42.620;25.394;2023-01-25T12:46:23;98054.28;;;3.49;64.11
52591;BME280;38483;42.620;25.394;2023-01-25T12:49:48;98044.06;;;3.37;63.94
52591;BME280;38483;42.620;25.394;2023-01-25T12:53:22;98044.88;;;3.54;63.96
52591;BME280;38483;42.620;25.394;2023-01-25T12:56:55;98038.88;;;3.61;63.41
52591;BME280;38483;42.620;25.394;2023-01-25T13:12:09;98038.06;;;3.53;63.78
52591;BME280;38483;42.620;25.394;2023-01-25T13:15:35;98035.47;;;3.66;62.41
52591;BME280;38483;42.620;25.394;2023-01-25T13:18:56;98029.53;;;3.40;64.27
52591;BME280;38483;42.620;25.394;2023-01-25T13:25:48;98023.47;;;3.79;63.13
52591;BME280;38483;42.620;25.394;2023-01-25T13:28:58;98022.69;;;3.57;62.69
52591;BME280;38483;42.620;25.394;2023-01-25T13:35:30;98009.91;;;3.41;63.50
52591;BME280;38483;42.620;25.394;2023-01-25T13:38:47;98020.06;;;3.74;62.44
52591;BME280;38483;42.620;25.394;2023-01-25T13:48:23;98011.47;;;3.93;61.02
52591;BME280;38483;42.620;25.394;2023-01-25T13:51:43;98032.81;;;3.92;60.25
52591;BME280;38483;42.620;25.394;2023-01-25T13:55:15;98031.09;;;4.01;60.20
52591;BME280;38483;42.620;25.394;2023-01-25T14:01:34;98025.13;;;3.92;59.26
52591;BME280;38483;42.620;25.394;2023-01-25T14:04:54;98024.25;;;3.96;60.28
52591;BME280;38483;42.620;25.394;2023-01-25T14:08:15;98025.13;;;3.90;59.20
52591;BME280;38483;42.620;25.394;2023-01-25T14:11:42;98015.00;;;3.56;59.31
52591;BME280;38483;42.620;25.394;2023-01-25T14:18:33;98015.81;;;3.74;59.94
52591;BME280;38483;42.620;25.394;2023-01-25T14:25:21;98020.06;;;3.74;59.99
52591;BME280;38483;42.620;25.394;2023-01-25T14:28:43;98019.25;;;3.57;59.38
52591;BME280;38483;42.620;25.394;2023-01-25T14:32:03;98017.59;;;3.45;59.73
52591;BME280;38483;42.620;25.394;2023-01-25T14:38:39;98021.03;;;3.40;61.46
52591;BME280;38483;42.620;25.394;2023-01-25T14:41:59;98036.34;;;3.53;60.77
52591;BME280;38483;42.620;25.394;2023-01-25T14:45:00;98018.47;;;3.44;60.99
52591;BME280;38483;42.620;25.394;2023-01-25T14:47:30;98038.13;;;3.32;61.31
52591;BME280;38483;42.620;25.394;2023-01-25T14:50:29;98044.91;;;3.43;60.79
52591;BME280;38483;42.620;25.394;2023-01-25T14:52:58;98049.22;;;3.27;61.01
52591;BME280;38483;42.620;25.394;2023-01-25T14:55:26;98038.13;;;2.95;60.67
52591;BME280;38483;42.620;25.394;2023-01-25T14:57:58;98052.59;;;2.62;61.22
52591;BME280;38483;42.620;25.394;2023-01-25T15:00:27;98044.06;;;2.49;60.79
52591;BME280;38483;42.620;25.394;2023-01-25T15:02:59;98049.19;;;2.57;61.29
52591;BME280;38483;42.620;25.394;2023-01-25T15:05:28;98052.59;;;2.59;61.24
52591;BME280;38483;42.620;25.394;2023-01-25T15:10:33;98052.56;;;2.42;62.27
52591;BME280;38483;42.620;25.394;2023-01-25T15:16:00;98048.22;;;2.17;62.29
52591;BME280;38483;42.620;25.394;2023-01-25T15:21:32;98060.16;;;2.21;63.13
52591;BME280;38483;42.620;25.394;2023-01-25T15:24:01;98052.53;;;2.37;62.77
52591;BME280;38483;42.620;25.394;2023-01-25T15:26:33;98055.09;;;2.42;62.32
52591;BME280;38483;42.620;25.394;2023-01-25T15:29:09;98056.81;;;2.38;62.41
52591;BME280;38483;42.620;25.394;2023-01-25T15:31:39;98048.31;;;2.50;62.47
52591;BME280;38483;42.620;25.394;2023-01-25T15:34:15;98054.25;;;2.37;61.51
52591;BME280;38483;42.620;25.394;2023-01-25T15:36:43;98032.88;;;2.11;62.95
52591;BME280;38483;42.620;25.394;2023-01-25T15:39:11;98044.81;;;2.21;63.03
52591;BME280;38483;42.620;25.394;2023-01-25T15:41:40;98056.63;;;1.90;63.79
52591;BME280;38483;42.620;25.394;2023-01-25T15:44:07;98051.56;;;2.01;63.65
52591;BME280;38483;42.620;25.394;2023-01-25T15:46:35;98054.13;;;2.01;64.11